createdAt,value
2019-02-24T00:02:04.138Z,58.50
2019-02-24T00:04:32.706Z,57.40
2019-02-24T00:07:01.138Z,57.50
2019-02-24T00:09:29.943Z,57.50
2019-02-24T00:11:58.519Z,58.10
2019-02-24T00:14:26.998Z,58.00
2019-02-24T00:16:55.902Z,58.40
2019-02-24T00:19:24.318Z,58.80
2019-02-24T00:21:52.726Z,58.00
2019-02-24T00:24:21.655Z,58.30
2019-02-24T00:26:50.362Z,58.30
2019-02-24T00:29:18.844Z,57.50
2019-02-24T00:31:47.605Z,57.20
2019-02-24T00:34:16.014Z,58.10
2019-02-24T00:36:44.608Z,58.30
2019-02-24T00:39:13.365Z,57.20
2019-02-24T00:41:41.780Z,57.30
2019-02-24T00:44:10.197Z,57.00
2019-02-24T00:46:39.012Z,56.60
2019-02-24T00:49:07.506Z,56.20
2019-02-24T00:51:35.913Z,56.50
2019-02-24T00:54:04.453Z,56.00
2019-02-24T00:56:32.894Z,56.00
2019-02-24T00:59:01.299Z,56.10
2019-02-24T01:01:30.366Z,56.60
2019-02-24T01:03:58.845Z,56.80
2019-02-24T01:06:27.339Z,57.20
2019-02-24T01:08:56.015Z,56.80
2019-02-24T01:11:24.421Z,56.60
2019-02-24T01:13:54.020Z,57.00
2019-02-24T01:16:22.586Z,57.80
2019-02-24T01:18:51.418Z,56.80
2019-02-24T01:21:21.676Z,57.30
2019-02-24T01:23:50.097Z,57.10
2019-02-24T01:26:18.815Z,56.60
2019-02-24T01:28:47.530Z,56.30
2019-02-24T01:31:15.925Z,56.00
2019-02-24T01:33:44.490Z,56.10
2019-02-24T01:36:12.962Z,56.00
2019-02-24T01:38:41.391Z,55.60
2019-02-24T01:41:24.762Z,56.00
2019-02-24T01:43:55.683Z,56.00
2019-02-24T01:46:24.293Z,55.10
2019-02-24T01:48:52.720Z,56.40
2019-02-24T01:51:21.293Z,56.00
2019-02-24T01:53:49.726Z,56.70
2019-02-24T01:56:18.228Z,55.90
2019-02-24T01:58:48.731Z,56.10
2019-02-24T02:01:17.470Z,55.30
2019-02-24T02:03:45.894Z,54.90
2019-02-24T02:06:14.520Z,55.30
2019-02-24T02:08:42.913Z,55.40
2019-02-24T02:11:11.378Z,55.10
2019-02-24T02:13:40.146Z,56.10
2019-02-24T02:16:08.600Z,55.40
2019-02-24T02:18:37.010Z,54.60
2019-02-24T02:21:05.593Z,54.70
2019-02-24T02:23:34.023Z,54.20
2019-02-24T02:26:02.431Z,53.60
2019-02-24T02:28:30.985Z,53.40
2019-02-24T02:31:00.114Z,53.40
2019-02-24T02:33:28.532Z,53.50
2019-02-24T02:35:58.729Z,54.10
2019-02-24T02:38:27.698Z,54.00
2019-02-24T02:40:56.126Z,54.10
2019-02-24T02:43:25.517Z,53.80
2019-02-24T02:45:54.339Z,53.10
2019-02-24T02:48:23.138Z,52.80
2019-02-24T02:50:51.618Z,53.20
2019-02-24T02:53:21.808Z,53.20
2019-02-24T02:55:50.224Z,53.60
2019-02-24T02:58:18.655Z,54.70
2019-02-24T03:00:47.753Z,53.70
2019-02-24T03:03:16.179Z,53.60
2019-02-24T03:05:46.361Z,52.90
2019-02-24T03:08:18.013Z,52.30
2019-02-24T03:10:47.422Z,52.40
2019-02-24T03:13:15.913Z,51.70
2019-02-24T03:15:44.317Z,51.70
2019-02-24T03:18:13.162Z,51.00
2019-02-24T03:20:41.565Z,51.10
2019-02-24T03:23:09.978Z,51.10
2019-02-24T03:25:39.137Z,51.00
2019-02-24T03:28:09.279Z,50.60
2019-02-24T03:30:37.682Z,50.80
2019-02-24T03:33:09.187Z,50.60
2019-02-24T03:35:37.593Z,50.40
2019-02-24T03:38:06.016Z,50.60
2019-02-24T03:40:36.083Z,50.70
2019-02-24T03:43:04.774Z,50.50
2019-02-24T03:45:33.188Z,50.90
2019-02-24T03:48:03.847Z,51.30
2019-02-24T03:50:32.422Z,51.20
2019-02-24T03:53:00.886Z,50.80
2019-02-24T03:55:31.290Z,50.00
2019-02-24T03:58:00.389Z,50.10
2019-02-24T04:00:29.151Z,50.10
2019-02-24T04:03:00.606Z,49.90
2019-02-24T04:05:30.883Z,50.60
2019-02-24T04:07:59.644Z,51.50
2019-02-24T04:10:29.928Z,50.70
2019-02-24T04:12:58.332Z,50.60
2019-02-24T04:15:27.246Z,50.60
2019-02-24T04:17:57.870Z,50.90
2019-02-24T04:20:26.265Z,51.00
2019-02-24T04:22:56.141Z,51.00
2019-02-24T04:25:32.082Z,51.60
2019-02-24T04:28:00.697Z,50.60
2019-02-24T04:30:29.191Z,51.30
2019-02-24T04:32:58.655Z,50.40
2019-02-24T04:35:27.694Z,50.20
2019-02-24T04:37:56.377Z,50.50
2019-02-24T04:40:27.980Z,50.50
2019-02-24T04:42:56.178Z,50.00
2019-02-24T04:45:25.086Z,49.90
2019-02-24T04:47:53.673Z,50.20
2019-02-24T04:50:22.086Z,50.10
2019-02-24T04:52:52.625Z,50.60
2019-02-24T04:55:22.045Z,50.60
2019-02-24T04:57:50.500Z,50.90
2019-02-24T05:00:19.253Z,51.10
2019-02-24T05:02:47.926Z,51.00
2019-02-24T05:05:16.362Z,51.00
2019-02-24T05:07:44.945Z,51.20
2019-02-24T05:10:16.243Z,52.20
2019-02-24T05:12:44.677Z,52.10
2019-02-24T05:15:13.412Z,52.60
2019-02-24T05:17:42.027Z,53.00
2019-02-24T05:20:10.610Z,52.90
2019-02-24T05:22:40.057Z,53.30
2019-02-24T05:25:09.791Z,52.50
2019-02-24T05:27:38.209Z,51.80
2019-02-24T05:30:08.252Z,52.30
2019-02-24T05:32:36.908Z,52.00
2019-02-24T05:35:05.763Z,52.30
2019-02-24T05:37:34.237Z,52.20
2019-02-24T05:40:04.172Z,52.50
2019-02-24T05:42:32.580Z,52.20
2019-02-24T05:45:00.975Z,52.10
2019-02-24T05:47:31.142Z,52.90
2019-02-24T05:49:59.585Z,52.20
2019-02-24T05:52:27.996Z,52.40
2019-02-24T05:54:56.619Z,52.30
2019-02-24T05:57:25.267Z,52.50
2019-02-24T05:59:55.506Z,52.90
2019-02-24T06:02:24.178Z,52.90
2019-02-24T06:04:52.596Z,52.90
2019-02-24T06:07:21.002Z,53.30
2019-02-24T06:09:49.591Z,52.90
2019-02-24T06:12:17.998Z,53.00
2019-02-24T06:14:46.437Z,52.80
2019-02-24T06:17:15.098Z,52.40
2019-02-24T06:19:43.527Z,52.30
2019-02-24T06:22:11.979Z,52.30
2019-02-24T06:24:40.543Z,52.30
2019-02-24T06:27:08.949Z,52.10
2019-02-24T06:29:37.391Z,52.10
2019-02-24T06:32:11.552Z,51.60
2019-02-24T06:34:40.031Z,51.80
2019-02-24T06:37:08.445Z,51.10
2019-02-24T06:39:39.009Z,51.60
2019-02-24T06:42:07.510Z,50.90
2019-02-24T06:44:41.174Z,50.80
2019-02-24T06:47:10.293Z,50.80
2019-02-24T06:49:38.716Z,50.70
2019-02-24T06:52:07.134Z,50.80
2019-02-24T06:54:37.538Z,50.80
2019-02-24T06:57:05.958Z,49.90
2019-02-24T06:59:35.925Z,50.10
2019-02-24T07:02:05.986Z,48.80
2019-02-24T07:04:34.396Z,48.90
2019-02-24T07:07:02.814Z,48.40
2019-02-24T07:09:33.103Z,48.30
2019-02-24T07:12:01.519Z,48.20
2019-02-24T07:14:29.951Z,48.20
2019-02-24T07:16:58.479Z,46.50
2019-02-24T07:19:26.893Z,46.40
2019-02-24T07:21:55.306Z,46.20
2019-02-24T07:24:25.692Z,44.90
2019-02-24T07:26:54.123Z,45.50
2019-02-24T07:29:22.563Z,45.70
2019-02-24T07:31:54.911Z,45.40
2019-02-24T07:34:23.349Z,47.20
2019-02-24T07:36:52.140Z,46.20
2019-02-24T07:39:21.837Z,46.90
2019-02-24T07:41:50.329Z,44.90
2019-02-24T07:44:19.124Z,44.20
2019-02-24T07:46:49.934Z,42.80
2019-02-24T07:49:18.466Z,43.40
2019-02-24T07:51:47.239Z,41.80
2019-02-24T07:54:16.370Z,41.20
2019-02-24T07:56:45.218Z,40.70
2019-02-24T07:59:14.024Z,42.20
2019-02-24T08:01:42.873Z,40.60
2019-02-24T08:04:11.403Z,39.20
2019-02-24T08:06:39.983Z,39.20
2019-02-24T08:09:08.842Z,39.10
2019-02-24T08:11:37.305Z,37.70
2019-02-24T08:14:05.759Z,37.00
2019-02-24T08:16:34.802Z,36.60
2019-02-24T08:19:03.339Z,36.50
2019-02-24T08:21:31.931Z,36.50
2019-02-24T08:24:00.927Z,34.60
2019-02-24T08:26:29.374Z,33.90
2019-02-24T08:28:58.005Z,34.50
2019-02-24T08:31:32.687Z,33.40
2019-02-24T08:34:01.102Z,33.90
2019-02-24T08:36:29.626Z,33.40
2019-02-24T08:38:58.603Z,33.30
2019-02-24T08:41:27.069Z,33.10
2019-02-24T08:43:55.550Z,32.50
2019-02-24T08:46:24.133Z,32.20
2019-02-24T08:48:52.659Z,32.10
2019-02-24T08:51:26.135Z,31.30
2019-02-24T08:53:54.553Z,32.40
2019-02-24T08:56:23.003Z,31.30
2019-02-24T08:58:52.317Z,30.00
2019-02-24T09:01:20.820Z,30.30
2019-02-24T09:03:49.674Z,29.50
2019-02-24T09:06:18.164Z,30.30
2019-02-24T09:08:46.825Z,29.30
2019-02-24T09:11:15.298Z,28.80
2019-02-24T09:13:43.775Z,29.70
2019-02-24T09:16:12.361Z,29.20
2019-02-24T09:18:40.886Z,30.30
2019-02-24T09:21:09.321Z,29.50
2019-02-24T09:23:38.832Z,28.50
2019-02-24T09:26:07.230Z,29.30
2019-02-24T09:28:35.722Z,29.30
2019-02-24T09:31:16.170Z,29.50
2019-02-24T09:33:44.626Z,28.70
2019-02-24T09:36:14.380Z,29.50
2019-02-24T09:38:50.739Z,29.60
2019-02-24T09:41:19.173Z,28.20
2019-02-24T09:43:47.675Z,28.10
2019-02-24T09:46:16.422Z,28.30
2019-02-24T09:48:44.825Z,27.70
2019-02-24T09:51:13.259Z,27.30
2019-02-24T09:53:42.343Z,27.30
2019-02-24T09:56:11.381Z,27.00
2019-02-24T09:58:39.817Z,26.50
2019-02-24T10:01:10.961Z,26.90
2019-02-24T10:03:38.812Z,26.10
2019-02-24T10:06:07.223Z,25.60
2019-02-24T10:08:36.086Z,26.30
2019-02-24T10:11:06.258Z,26.50
2019-02-24T10:13:34.703Z,26.50
2019-02-24T10:16:03.796Z,26.30
2019-02-24T10:18:32.339Z,26.40
2019-02-24T10:21:00.757Z,26.10
2019-02-24T10:23:29.960Z,26.10
2019-02-24T10:25:58.386Z,25.70
2019-02-24T10:28:26.911Z,26.70
2019-02-24T10:30:55.499Z,25.20
2019-02-24T10:33:24.252Z,24.80
2019-02-24T10:35:52.692Z,24.60
2019-02-24T10:38:21.866Z,24.70
2019-02-24T10:40:51.884Z,24.80
2019-02-24T10:43:20.427Z,23.70
2019-02-24T10:45:49.469Z,24.00
2019-02-24T10:48:17.921Z,23.40
2019-02-24T10:50:49.658Z,22.60
2019-02-24T10:53:18.298Z,23.40
2019-02-24T10:55:46.730Z,21.30
2019-02-24T10:58:17.307Z,20.80
2019-02-24T11:00:45.969Z,21.50
2019-02-24T11:03:14.398Z,20.50
2019-02-24T11:05:42.898Z,19.60
2019-02-24T11:08:11.640Z,20.70
2019-02-24T11:10:40.054Z,20.10
2019-02-24T11:13:08.522Z,20.30
2019-02-24T11:15:37.097Z,20.30
2019-02-24T11:18:05.606Z,21.30
2019-02-24T11:20:34.038Z,21.30
2019-02-24T11:23:02.445Z,20.30
2019-02-24T11:25:31.480Z,20.20
2019-02-24T11:27:59.955Z,19.70
2019-02-24T11:30:28.402Z,19.40
2019-02-24T11:32:57.368Z,19.00
2019-02-24T11:35:25.776Z,19.40
2019-02-24T11:37:54.187Z,18.70
2019-02-24T11:40:23.516Z,18.60
2019-02-24T11:42:52.010Z,18.80
2019-02-24T11:45:20.885Z,17.80
2019-02-24T11:47:49.500Z,16.90
2019-02-24T11:50:18.004Z,17.30
2019-02-24T11:52:46.424Z,17.50
2019-02-24T11:55:15.271Z,17.10
2019-02-24T11:57:43.679Z,18.80
2019-02-24T12:00:14.655Z,18.90
2019-02-24T12:02:45.719Z,19.50
2019-02-24T12:05:14.139Z,18.50
2019-02-24T12:07:42.559Z,18.30
2019-02-24T12:10:16.678Z,18.60
2019-02-24T12:12:47.103Z,15.60
2019-02-24T12:15:15.692Z,17.30
2019-02-24T12:17:44.596Z,16.00
2019-02-24T12:20:14.161Z,14.60
2019-02-24T12:22:42.577Z,16.00
2019-02-24T12:25:12.493Z,16.00
2019-02-24T12:27:41.490Z,15.30
2019-02-24T12:30:15.037Z,14.30
2019-02-24T12:32:43.450Z,15.30
2019-02-24T12:35:13.401Z,13.50
2019-02-24T12:37:42.782Z,12.90
2019-02-24T12:40:13.463Z,13.30
2019-02-24T12:42:42.005Z,14.40
2019-02-24T12:45:12.019Z,14.70
2019-02-24T12:47:41.980Z,15.90
2019-02-24T12:50:15.858Z,14.80
2019-02-24T12:52:44.498Z,15.00
2019-02-24T12:55:13.101Z,15.20
2019-02-24T12:57:42.322Z,14.00
2019-02-24T13:00:19.153Z,14.20
2019-02-24T13:02:48.690Z,14.10
2019-02-24T13:05:17.239Z,14.50
2019-02-24T13:07:45.663Z,15.00
2019-02-24T13:10:18.339Z,15.90
2019-02-24T13:12:46.759Z,14.20
2019-02-24T13:15:15.188Z,13.90
2019-02-24T13:17:44.297Z,14.00
2019-02-24T13:20:13.044Z,14.10
2019-02-24T13:22:41.587Z,13.30
2019-02-24T13:25:12.497Z,14.30
2019-02-24T13:27:41.420Z,12.50
2019-02-24T13:30:12.462Z,12.60
2019-02-24T13:32:40.979Z,11.90
2019-02-24T13:35:11.306Z,15.00
2019-02-24T13:37:39.786Z,13.30
2019-02-24T13:40:10.538Z,14.60
2019-02-24T13:42:39.674Z,13.60
2019-02-24T13:45:11.317Z,14.00
2019-02-24T13:47:39.992Z,13.70
2019-02-24T13:50:09.614Z,13.50
2019-02-24T13:52:38.048Z,12.90
2019-02-24T13:55:09.549Z,12.90
2019-02-24T13:57:38.170Z,13.20
2019-02-24T14:00:18.271Z,12.90
2019-02-24T14:02:47.231Z,13.00
2019-02-24T14:05:16.764Z,13.20
2019-02-24T14:07:46.619Z,13.00
2019-02-24T14:10:17.539Z,12.80
2019-02-24T14:12:46.107Z,13.30
2019-02-24T14:15:15.675Z,13.60
2019-02-24T14:17:44.378Z,13.50
2019-02-24T14:20:17.683Z,12.70
2019-02-24T14:22:46.216Z,13.00
2019-02-24T14:25:15.671Z,13.10
2019-02-24T14:27:44.109Z,13.30
2019-02-24T14:30:16.876Z,12.60
2019-02-24T14:32:45.674Z,12.80
2019-02-24T14:35:16.616Z,13.00
2019-02-24T14:37:45.084Z,12.50
2019-02-24T14:40:13.786Z,13.60
2019-02-24T14:42:42.197Z,11.80
2019-02-24T14:45:13.514Z,12.40
2019-02-24T14:47:42.026Z,12.80
2019-02-24T14:50:11.374Z,12.50
2019-02-24T14:52:40.207Z,13.10
2019-02-24T14:55:15.322Z,13.70
2019-02-24T14:57:45.627Z,13.90
2019-02-24T15:00:23.257Z,13.60
2019-02-24T15:02:51.721Z,13.80
2019-02-24T15:05:20.286Z,14.20
2019-02-24T15:07:49.091Z,13.80
2019-02-24T15:10:22.089Z,14.90
2019-02-24T15:12:50.851Z,13.40
2019-02-24T15:15:22.399Z,13.60
2019-02-24T15:17:51.009Z,13.50
2019-02-24T15:20:20.896Z,14.30
2019-02-24T15:22:49.392Z,14.60
2019-02-24T15:25:18.471Z,15.10
2019-02-24T15:27:47.399Z,13.70
2019-02-24T15:30:31.660Z,14.50
2019-02-24T15:33:00.320Z,13.50
2019-02-24T15:35:28.855Z,13.80
2019-02-24T15:37:58.125Z,14.40
2019-02-24T15:40:26.823Z,14.60
2019-02-24T15:42:55.374Z,14.20
2019-02-24T15:45:24.902Z,14.50
2019-02-24T15:47:53.890Z,14.60
2019-02-24T15:50:22.373Z,16.30
2019-02-24T15:52:50.944Z,16.80
2019-02-24T15:55:21.247Z,15.90
2019-02-24T15:57:49.752Z,16.10
2019-02-24T16:00:20.579Z,15.30
2019-02-24T16:02:49.061Z,16.20
2019-02-24T16:05:17.997Z,15.90
2019-02-24T16:07:46.473Z,16.70
2019-02-24T16:10:22.244Z,15.90
2019-02-24T16:12:50.728Z,16.20
2019-02-24T16:15:24.561Z,16.30
2019-02-24T16:17:53.262Z,16.40
2019-02-24T16:20:27.187Z,17.60
2019-02-24T16:22:55.968Z,18.10
2019-02-24T16:25:24.457Z,18.60
2019-02-24T16:27:54.135Z,17.80
2019-02-24T16:30:22.754Z,17.20
2019-02-24T16:32:51.212Z,16.90
2019-02-24T16:35:19.847Z,18.10
2019-02-24T16:37:48.413Z,20.10
2019-02-24T16:40:19.376Z,20.10
2019-02-24T16:42:47.835Z,18.60
2019-02-24T16:45:17.126Z,18.90
2019-02-24T16:47:45.590Z,21.80
2019-02-24T16:50:16.541Z,22.00
2019-02-24T16:52:45.526Z,21.30
2019-02-24T16:55:15.804Z,24.80
2019-02-24T16:57:44.315Z,22.80
2019-02-24T17:00:20.548Z,24.20
2019-02-24T17:02:49.157Z,25.40
2019-02-24T17:05:17.774Z,26.60
2019-02-24T17:07:46.416Z,25.70
2019-02-24T17:10:28.317Z,27.10
2019-02-24T17:12:57.468Z,27.70
2019-02-24T17:15:26.043Z,27.50
2019-02-24T17:17:54.601Z,27.80
2019-02-24T17:20:24.802Z,28.10
2019-02-24T17:22:53.343Z,28.00
2019-02-24T17:25:21.779Z,26.70
2019-02-24T17:27:50.524Z,26.20
2019-02-24T17:30:20.077Z,27.60
2019-02-24T17:32:48.633Z,29.20
2019-02-24T17:35:17.313Z,29.90
2019-02-24T17:37:45.811Z,30.60
2019-02-24T17:40:19.782Z,32.20
2019-02-24T17:42:48.553Z,32.10
2019-02-24T17:45:17.165Z,32.40
2019-02-24T17:47:46.132Z,33.30
2019-02-24T17:50:18.027Z,34.40
2019-02-24T17:52:46.522Z,34.10
2019-02-24T17:55:16.199Z,33.80
2019-02-24T17:57:44.971Z,35.20
2019-02-24T18:00:21.090Z,35.20
2019-02-24T18:02:49.649Z,34.50
2019-02-24T18:05:18.211Z,34.40
2019-02-24T18:07:46.692Z,33.80
2019-02-24T18:10:16.203Z,34.60
2019-02-24T18:12:44.630Z,33.30
2019-02-24T18:15:13.490Z,33.80
2019-02-24T18:17:43.214Z,34.80
2019-02-24T18:20:14.341Z,33.20
2019-02-24T18:22:42.760Z,32.60
2019-02-24T18:25:12.482Z,33.10
2019-02-24T18:27:40.981Z,34.30
2019-02-24T18:30:27.223Z,31.10
2019-02-24T18:32:55.703Z,32.10
2019-02-24T18:35:24.192Z,35.20
2019-02-24T18:37:53.233Z,35.00
2019-02-24T18:40:21.866Z,34.50
2019-02-24T18:42:59.381Z,34.20
2019-02-24T18:45:21.025Z,32.10
2019-02-24T18:47:49.889Z,33.40
2019-02-24T18:50:20.107Z,34.40
2019-02-24T18:52:48.826Z,35.00
2019-02-24T18:55:17.885Z,31.70
2019-02-24T18:57:46.393Z,30.30
2019-02-24T19:00:19.683Z,32.00
2019-02-24T19:02:48.344Z,31.10
2019-02-24T19:05:16.988Z,29.80
2019-02-24T19:07:46.047Z,31.70
2019-02-24T19:10:17.139Z,29.50
2019-02-24T19:12:45.802Z,29.70
2019-02-24T19:15:17.467Z,33.50
2019-02-24T19:17:46.006Z,30.50
2019-02-24T19:20:23.124Z,30.90
2019-02-24T19:22:51.532Z,30.90
2019-02-24T19:25:20.115Z,31.50
2019-02-24T19:27:48.932Z,31.50
2019-02-24T19:30:21.837Z,33.80
2019-02-24T19:32:50.781Z,34.70
2019-02-24T19:35:19.995Z,34.10
2019-02-24T19:37:48.473Z,32.90
2019-02-24T19:40:22.084Z,36.20
2019-02-24T19:42:50.767Z,33.20
2019-02-24T19:45:25.067Z,32.00
2019-02-24T19:47:53.587Z,32.60
2019-02-24T19:50:22.185Z,32.90
2019-02-24T19:52:51.459Z,34.30
2019-02-24T19:55:20.209Z,35.20
2019-02-24T19:57:48.645Z,35.20
2019-02-24T20:00:25.933Z,35.20
2019-02-24T20:02:54.418Z,36.70
2019-02-24T20:05:22.980Z,40.30
2019-02-24T20:07:52.684Z,39.70
2019-02-24T20:10:26.676Z,40.80
2019-02-24T20:12:55.252Z,42.60
2019-02-24T20:15:24.027Z,43.00
2019-02-24T20:17:52.659Z,43.80
2019-02-24T20:20:21.267Z,44.70
2019-02-24T20:22:49.793Z,44.00
2019-02-24T20:25:20.629Z,44.50
2019-02-24T20:27:49.342Z,44.70
2019-02-24T20:30:25.975Z,43.00
2019-02-24T20:32:54.909Z,45.90
2019-02-24T20:35:23.760Z,45.30
2019-02-24T20:37:52.232Z,45.40
2019-02-24T20:40:21.191Z,47.10
2019-02-24T20:42:49.670Z,47.80
2019-02-24T20:45:19.731Z,47.40
2019-02-24T20:47:49.484Z,45.70
2019-02-24T20:50:20.146Z,47.10
2019-02-24T20:52:48.710Z,46.20
2019-02-24T20:55:18.109Z,47.30
2019-02-24T20:57:46.610Z,48.10
2019-02-24T21:00:37.613Z,48.20
2019-02-24T21:03:06.401Z,48.00
2019-02-24T21:05:34.823Z,45.50
2019-02-24T21:08:04.280Z,45.10
2019-02-24T21:10:32.798Z,44.50
2019-02-24T21:13:01.406Z,44.40
2019-02-24T21:15:29.929Z,43.10
2019-02-24T21:17:58.518Z,42.70
2019-02-24T21:20:29.170Z,42.60
2019-02-24T21:22:57.851Z,42.80
2019-02-24T21:25:26.430Z,43.40
2019-02-24T21:27:54.892Z,43.70
2019-02-24T21:30:25.652Z,43.60
2019-02-24T21:32:54.137Z,43.30
2019-02-24T21:35:22.970Z,43.30
2019-02-24T21:37:51.543Z,43.60
2019-02-24T21:40:20.800Z,43.60
2019-02-24T21:42:49.232Z,43.80
2019-02-24T21:45:24.782Z,43.30
2019-02-24T21:47:53.501Z,44.00
2019-02-24T21:50:21.995Z,43.40
2019-02-24T21:52:50.478Z,43.30
2019-02-24T21:55:19.257Z,43.40
2019-02-24T21:57:47.757Z,43.50
2019-02-24T22:00:23.798Z,43.10
2019-02-24T22:02:52.345Z,43.10
2019-02-24T22:05:20.913Z,43.30
2019-02-24T22:07:50.158Z,43.30
2019-02-24T22:10:18.583Z,43.40
2019-02-24T22:12:47.025Z,43.10
2019-02-24T22:15:29.646Z,43.00
2019-02-24T22:17:58.077Z,42.70
2019-02-24T22:20:26.519Z,42.50
2019-02-24T22:22:55.284Z,42.00
2019-02-24T22:25:23.734Z,41.40
2019-02-24T22:27:52.244Z,41.00
2019-02-24T22:30:22.392Z,41.60
2019-02-24T22:32:50.965Z,40.70
2019-02-24T22:35:19.435Z,40.80
2019-02-24T22:37:48.422Z,41.10
2019-02-24T22:40:17.289Z,41.10
2019-02-24T22:42:46.200Z,41.20
2019-02-24T22:45:18.920Z,43.10
2019-02-24T22:47:47.377Z,40.80
2019-02-24T22:50:16.385Z,40.80
2019-02-24T22:52:46.193Z,40.40
2019-02-24T22:55:15.843Z,40.50
2019-02-24T22:57:44.400Z,41.00
2019-02-24T23:00:30.662Z,41.20
2019-02-24T23:02:59.212Z,41.30
2019-02-24T23:05:27.633Z,41.50
2019-02-24T23:08:01.503Z,41.60
2019-02-24T23:10:30.052Z,41.90
2019-02-24T23:12:58.480Z,41.90
2019-02-24T23:15:27.308Z,42.40
2019-02-24T23:17:55.804Z,42.30
2019-02-24T23:20:24.243Z,42.80
2019-02-24T23:22:52.915Z,44.50
2019-02-24T23:25:21.382Z,48.00
2019-02-24T23:27:49.804Z,47.60
2019-02-24T23:30:18.383Z,50.60
2019-02-24T23:32:46.886Z,50.40
2019-02-24T23:35:15.406Z,51.30
2019-02-24T23:37:44.458Z,50.60
2019-02-24T23:40:13.031Z,51.20
2019-02-24T23:42:41.493Z,51.90
2019-02-24T23:45:11.679Z,52.30
2019-02-24T23:47:40.172Z,52.40
2019-02-24T23:50:12.944Z,52.30
2019-02-24T23:52:41.410Z,52.40
2019-02-24T23:55:11.208Z,53.60
2019-02-24T23:57:39.722Z,54.40
